createdAt,value
2018-06-01T00:02:15.142Z,101082.51
2018-06-01T00:04:43.309Z,101085.23
2018-06-01T00:07:11.416Z,101088.62
2018-06-01T00:09:39.558Z,101086.32
2018-06-01T00:12:07.706Z,101085.92
2018-06-01T00:14:35.852Z,101086.48
2018-06-01T00:17:04.009Z,101087.11
2018-06-01T00:19:32.206Z,101089.05
2018-06-01T00:22:00.352Z,101086.41
2018-06-01T00:24:28.489Z,101092.69
2018-06-01T00:26:56.623Z,101089.53
2018-06-01T00:29:24.815Z,101090.64
2018-06-01T00:31:52.941Z,101093.09
2018-06-01T00:34:21.064Z,101092.13
2018-06-01T00:36:49.196Z,101092.14
2018-06-01T00:39:17.353Z,101099.08
2018-06-01T00:41:45.786Z,101094.01
2018-06-01T00:44:13.948Z,101093.23
2018-06-01T00:46:42.070Z,101093.75
2018-06-01T00:49:10.210Z,101092.66
2018-06-01T00:51:38.341Z,101094.95
2018-06-01T00:54:06.509Z,101091.95
2018-06-01T00:56:34.624Z,101092.89
2018-06-01T00:59:02.755Z,101093.46
2018-06-01T01:01:30.921Z,101088.11
2018-06-01T01:03:59.061Z,101082.25
2018-06-01T01:06:27.233Z,101081.06
2018-06-01T01:08:55.857Z,101080.73
2018-06-01T01:11:23.987Z,101081.26
2018-06-01T01:13:52.137Z,101074.86
2018-06-01T01:16:20.256Z,101078.06
2018-06-01T01:18:48.416Z,101077.91
2018-06-01T01:21:16.577Z,101075.95
2018-06-01T01:23:44.722Z,101074.08
2018-06-01T01:26:12.845Z,101076.83
2018-06-01T01:28:40.973Z,101065.05
2018-06-01T01:31:09.112Z,101064.71
2018-06-01T01:33:37.260Z,101064.66
2018-06-01T01:36:05.377Z,101068.19
2018-06-01T01:38:33.512Z,101069.84
2018-06-01T01:41:01.665Z,101081.75
2018-06-01T01:43:29.788Z,101087.20
2018-06-01T01:45:57.936Z,101088.03
2018-06-01T01:48:26.056Z,101091.56
2018-06-01T01:50:54.198Z,101095.81
2018-06-01T01:53:22.334Z,101101.42
2018-06-01T01:55:50.509Z,101103.46
2018-06-01T01:58:18.664Z,101104.19
2018-06-01T02:00:46.782Z,101107.56
2018-06-01T02:03:14.904Z,101104.96
2018-06-01T02:05:43.042Z,101108.39
2018-06-01T02:08:11.179Z,101114.68
2018-06-01T02:10:39.310Z,101118.80
2018-06-01T02:13:12.313Z,101117.30
2018-06-01T02:15:40.452Z,101102.65
2018-06-01T02:18:08.568Z,101094.96
2018-06-01T02:20:37.356Z,101085.52
2018-06-01T02:23:05.487Z,101084.14
2018-06-01T02:25:33.614Z,101077.73
2018-06-01T02:28:01.762Z,101073.65
2018-06-01T02:30:29.898Z,101065.60
2018-06-01T02:32:58.032Z,101066.25
2018-06-01T02:35:26.171Z,101060.37
2018-06-01T02:37:54.306Z,101045.98
2018-06-01T02:40:22.420Z,101052.16
2018-06-01T02:42:50.594Z,101050.92
2018-06-01T02:45:18.717Z,101048.05
2018-06-01T02:47:46.854Z,101050.41
2018-06-01T02:50:14.971Z,101057.95
2018-06-01T02:52:43.125Z,101061.05
2018-06-01T02:55:11.260Z,101065.30
2018-06-01T02:57:39.421Z,101066.68
2018-06-01T03:00:07.558Z,101065.94
2018-06-01T03:02:35.705Z,101067.82
2018-06-01T03:05:03.843Z,101071.52
2018-06-01T03:07:32.013Z,101063.03
2018-06-01T03:10:00.151Z,101061.37
2018-06-01T03:12:28.280Z,101055.59
2018-06-01T03:14:56.445Z,101056.95
2018-06-01T03:17:24.574Z,101051.63
2018-06-01T03:19:52.723Z,101051.50
2018-06-01T03:22:20.876Z,101055.38
2018-06-01T03:24:49.027Z,101046.63
2018-06-01T03:27:17.369Z,101046.02
2018-06-01T03:29:45.521Z,101049.42
2018-06-01T03:32:13.652Z,101053.67
2018-06-01T03:34:41.791Z,101071.37
2018-06-01T03:37:09.930Z,101072.73
2018-06-01T03:39:38.080Z,101074.91
2018-06-01T03:42:06.238Z,101084.48
2018-06-01T03:44:34.407Z,101091.03
2018-06-01T03:47:02.539Z,101086.10
2018-06-01T03:49:30.686Z,101074.73
2018-06-01T03:52:01.734Z,101067.05
2018-06-01T03:54:29.877Z,101057.98
2018-06-01T03:56:58.050Z,101051.44
2018-06-01T03:59:26.165Z,101056.65
2018-06-01T04:01:54.313Z,101053.67
2018-06-01T04:04:23.442Z,101069.65
2018-06-01T04:06:51.555Z,101070.07
2018-06-01T04:09:20.283Z,101078.30
2018-06-01T04:11:48.419Z,101079.36
2018-06-01T04:14:16.555Z,101084.27
2018-06-01T04:16:44.717Z,101089.89
2018-06-01T04:19:12.855Z,101097.48
2018-06-01T04:21:40.985Z,101102.98
2018-06-01T04:24:09.128Z,101108.27
2018-06-01T04:26:37.270Z,101116.74
2018-06-01T04:29:05.411Z,101125.19
2018-06-01T04:31:33.556Z,101128.07
2018-06-01T04:34:01.692Z,101131.37
2018-06-01T04:36:29.830Z,101141.59
2018-06-01T04:38:57.967Z,101130.41
2018-06-01T04:41:26.109Z,101122.45
2018-06-01T04:43:54.247Z,101110.39
2018-06-01T04:46:22.421Z,101100.39
2018-06-01T04:48:50.550Z,101102.45
2018-06-01T04:51:18.682Z,101114.27
2018-06-01T04:53:46.830Z,101119.30
2018-06-01T04:56:14.993Z,101123.14
2018-06-01T04:58:46.692Z,101137.91
2018-06-01T05:01:14.871Z,101147.77
2018-06-01T05:03:42.992Z,101160.82
2018-06-01T05:06:11.139Z,101177.49
2018-06-01T05:08:39.283Z,101202.53
2018-06-01T05:11:07.444Z,101211.41
2018-06-01T05:13:35.593Z,101223.59
2018-06-01T05:16:03.722Z,101218.95
2018-06-01T05:18:31.875Z,101197.07
2018-06-01T05:21:00.006Z,101202.81
2018-06-01T05:23:28.150Z,101203.48
2018-06-01T05:25:56.268Z,101211.39
2018-06-01T05:28:24.395Z,101219.45
2018-06-01T05:30:52.544Z,101220.59
2018-06-01T05:33:20.708Z,101225.06
2018-06-01T05:35:49.429Z,101222.91
2018-06-01T05:38:17.561Z,101225.63
2018-06-01T05:40:45.703Z,101221.94
2018-06-01T05:43:13.841Z,101214.53
2018-06-01T05:45:42.173Z,101211.66
2018-06-01T05:48:10.288Z,101209.06
2018-06-01T05:50:38.452Z,101207.83
2018-06-01T05:53:06.595Z,101202.21
2018-06-01T05:55:34.741Z,101195.38
2018-06-01T05:58:02.901Z,101186.52
2018-06-01T06:00:31.034Z,101172.27
2018-06-01T06:02:59.184Z,101165.27
2018-06-01T06:05:27.327Z,101155.56
2018-06-01T06:07:55.474Z,101145.84
2018-06-01T06:10:23.599Z,101146.27
2018-06-01T06:12:51.748Z,101147.23
2018-06-01T06:15:19.893Z,101141.22
2018-06-01T06:17:48.045Z,101142.99
2018-06-01T06:20:16.167Z,101140.26
2018-06-01T06:22:44.319Z,101150.24
2018-06-01T06:25:12.456Z,101148.20
2018-06-01T06:27:40.576Z,101149.02
2018-06-01T06:30:08.741Z,101153.55
2018-06-01T06:32:36.860Z,101154.23
2018-06-01T06:35:05.012Z,101155.71
2018-06-01T06:37:33.158Z,101155.30
2018-06-01T06:40:01.312Z,101151.05
2018-06-01T06:42:29.439Z,101149.14
2018-06-01T06:44:58.575Z,101147.23
2018-06-01T06:47:26.726Z,101146.29
2018-06-01T06:49:54.858Z,101149.69
2018-06-01T06:52:23.008Z,101140.38
2018-06-01T06:54:51.123Z,101144.78
2018-06-01T06:57:19.271Z,101151.50
2018-06-01T06:59:47.418Z,101154.78
2018-06-01T07:02:15.555Z,101153.70
2018-06-01T07:04:43.699Z,101150.28
2018-06-01T07:07:11.820Z,101148.46
2018-06-01T07:09:39.962Z,101147.66
2018-06-01T07:12:08.110Z,101146.59
2018-06-01T07:14:36.318Z,101141.91
2018-06-01T07:17:07.454Z,101139.59
2018-06-01T07:19:39.147Z,101134.63
2018-06-01T07:22:07.305Z,101132.60
2018-06-01T07:24:35.550Z,101127.70
2018-06-01T07:27:03.676Z,101124.25
2018-06-01T07:29:31.820Z,101134.94
2018-06-01T07:31:59.960Z,101121.80
2018-06-01T07:34:28.114Z,101122.60
2018-06-01T07:36:56.258Z,101116.03
2018-06-01T07:39:24.384Z,101111.37
2018-06-01T07:41:52.549Z,101111.81
2018-06-01T07:44:20.686Z,101109.95
2018-06-01T07:46:48.826Z,101103.39
2018-06-01T07:49:16.986Z,101109.84
2018-06-01T07:51:45.138Z,101104.50
2018-06-01T07:54:13.282Z,101105.44
2018-06-01T07:56:41.453Z,101098.20
2018-06-01T07:59:09.583Z,101098.77
2018-06-01T08:01:37.759Z,101099.84
2018-06-01T08:04:05.864Z,101099.70
2018-06-01T08:06:34.002Z,101101.22
2018-06-01T08:09:02.129Z,101101.63
2018-06-01T08:11:30.301Z,101099.84
2018-06-01T08:13:58.442Z,101110.06
2018-06-01T08:16:26.558Z,101113.92
2018-06-01T08:18:54.704Z,101115.68
2018-06-01T08:21:22.833Z,101117.19
2018-06-01T08:23:51.248Z,101118.41
2018-06-01T08:26:19.378Z,101115.80
2018-06-01T08:28:47.503Z,101109.39
2018-06-01T08:31:15.646Z,101107.48
2018-06-01T08:33:43.908Z,101112.12
2018-06-01T08:36:12.083Z,101117.30
2018-06-01T08:38:40.208Z,101127.45
2018-06-01T08:41:08.358Z,101140.59
2018-06-01T08:43:36.479Z,101147.03
2018-06-01T08:46:04.641Z,101171.64
2018-06-01T08:48:33.108Z,101201.32
2018-06-01T08:51:01.212Z,101230.84
2018-06-01T08:53:29.348Z,101240.13
2018-06-01T08:55:57.498Z,101249.16
2018-06-01T08:58:25.638Z,101245.86
2018-06-01T09:00:53.778Z,101231.40
2018-06-01T09:03:21.925Z,101225.09
2018-06-01T09:05:50.074Z,101216.51
2018-06-01T09:08:18.215Z,101219.77
2018-06-01T09:10:46.342Z,101224.14
2018-06-01T09:13:14.476Z,101235.08
2018-06-01T09:15:42.615Z,101239.98
2018-06-01T09:18:10.738Z,101241.48
2018-06-01T09:20:38.901Z,101239.18
2018-06-01T09:23:07.044Z,101241.62
2018-06-01T09:25:35.397Z,101246.57
2018-06-01T09:28:03.526Z,101252.70
2018-06-01T09:30:31.671Z,101253.79
2018-06-01T09:32:59.797Z,101248.33
2018-06-01T09:35:27.942Z,101246.42
2018-06-01T09:37:56.113Z,101246.42
2018-06-01T09:40:24.242Z,101239.73
2018-06-01T09:42:52.387Z,101234.80
2018-06-01T09:45:20.541Z,101236.72
2018-06-01T09:47:48.700Z,101229.03
2018-06-01T09:50:16.861Z,101234.11
2018-06-01T09:52:44.986Z,101234.91
2018-06-01T09:55:13.123Z,101232.46
2018-06-01T09:57:41.266Z,101229.03
2018-06-01T10:00:09.388Z,101225.48
2018-06-01T10:02:37.600Z,101223.46
2018-06-01T10:05:05.709Z,101216.05
2018-06-01T10:07:33.842Z,101209.20
2018-06-01T10:10:07.502Z,101216.31
2018-06-01T10:12:35.638Z,101210.83
2018-06-01T10:15:03.828Z,101208.23
2018-06-01T10:17:31.900Z,101209.74
2018-06-01T10:20:00.037Z,101209.75
2018-06-01T10:22:28.187Z,101210.84
2018-06-01T10:24:56.313Z,101209.61
2018-06-01T10:27:24.452Z,101212.99
2018-06-01T10:29:52.586Z,101211.36
2018-06-01T10:32:20.725Z,101215.06
2018-06-01T10:34:48.862Z,101212.20
2018-06-01T10:37:17.003Z,101209.61
2018-06-01T10:39:45.165Z,101205.35
2018-06-01T10:42:13.279Z,101207.70
2018-06-01T10:44:41.423Z,101220.83
2018-06-01T10:47:09.569Z,101211.37
2018-06-01T10:49:37.715Z,101216.13
2018-06-01T10:52:05.854Z,101207.52
2018-06-01T10:54:34.000Z,101212.21
2018-06-01T10:57:02.135Z,101210.61
2018-06-01T10:59:30.277Z,101218.42
2018-06-01T11:01:58.421Z,101217.02
2018-06-01T11:04:26.555Z,101220.45
2018-06-01T11:06:54.713Z,101214.61
2018-06-01T11:09:22.855Z,101217.50
2018-06-01T11:11:50.998Z,101218.59
2018-06-01T11:14:19.134Z,101221.88
2018-06-01T11:16:47.339Z,101220.23
2018-06-01T11:19:15.759Z,101229.06
2018-06-01T11:21:43.879Z,101228.79
2018-06-01T11:24:12.037Z,101236.57
2018-06-01T11:26:40.164Z,101232.05
2018-06-01T11:29:08.322Z,101236.84
2018-06-01T11:31:36.432Z,101232.48
2018-06-01T11:34:04.597Z,101223.80
2018-06-01T11:36:32.737Z,101217.88
2018-06-01T11:39:00.897Z,101210.94
2018-06-01T11:41:29.057Z,101208.45
2018-06-01T11:43:57.196Z,101203.06
2018-06-01T11:46:25.349Z,101205.97
2018-06-01T11:48:53.497Z,101202.47
2018-06-01T11:51:21.776Z,101210.66
2018-06-01T11:53:49.931Z,101200.41
2018-06-01T11:56:18.062Z,101202.47
2018-06-01T11:58:46.249Z,101199.31
2018-06-01T12:01:14.360Z,101198.17
2018-06-01T12:03:42.496Z,101194.05
2018-06-01T12:06:10.739Z,101197.55
2018-06-01T12:08:38.841Z,101200.50
2018-06-01T12:11:07.009Z,101198.86
2018-06-01T12:13:35.122Z,101206.72
2018-06-01T12:16:03.253Z,101202.84
2018-06-01T12:18:31.391Z,101210.38
2018-06-01T12:20:59.560Z,101211.66
2018-06-01T12:23:27.714Z,101209.77
2018-06-01T12:25:55.849Z,101213.59
2018-06-01T12:28:24.002Z,101218.44
2018-06-01T12:30:52.167Z,101225.19
2018-06-01T12:33:20.318Z,101225.72
2018-06-01T12:35:48.446Z,101226.45
2018-06-01T12:38:16.587Z,101224.42
2018-06-01T12:40:44.737Z,101225.94
2018-06-01T12:43:12.898Z,101219.78
2018-06-01T12:45:41.022Z,101220.81
2018-06-01T12:48:09.186Z,101224.45
2018-06-01T12:50:37.347Z,101226.34
2018-06-01T12:53:05.457Z,101228.12
2018-06-01T12:55:33.613Z,101222.91
2018-06-01T12:58:01.728Z,101224.10
2018-06-01T13:00:29.935Z,101217.47
2018-06-01T13:02:58.047Z,101222.67
2018-06-01T13:05:26.204Z,101220.72
2018-06-01T13:07:54.320Z,101213.66
2018-06-01T13:10:22.459Z,101215.09
2018-06-01T13:12:50.602Z,101213.71
2018-06-01T13:15:18.768Z,101202.76
2018-06-01T13:17:46.912Z,101203.05
2018-06-01T13:20:15.055Z,101193.89
2018-06-01T13:22:43.205Z,101191.16
2018-06-01T13:25:11.347Z,101187.42
2018-06-01T13:27:39.464Z,101187.65
2018-06-01T13:30:07.608Z,101189.92
2018-06-01T13:32:35.749Z,101190.25
2018-06-01T13:35:03.984Z,101199.11
2018-06-01T13:37:32.115Z,101202.86
2018-06-01T13:40:00.252Z,101207.33
2018-06-01T13:42:28.376Z,101206.10
2018-06-01T13:44:56.519Z,101197.46
2018-06-01T13:47:24.663Z,101194.25
2018-06-01T13:49:52.817Z,101192.53
2018-06-01T13:52:20.942Z,101201.52
2018-06-01T13:54:52.229Z,101200.08
2018-06-01T13:57:20.375Z,101202.07
2018-06-01T13:59:48.526Z,101202.34
2018-06-01T14:02:16.671Z,101204.20
2018-06-01T14:04:44.825Z,101201.96
2018-06-01T14:07:12.963Z,101199.36
2018-06-01T14:09:41.099Z,101199.42
2018-06-01T14:12:09.243Z,101201.33
2018-06-01T14:14:37.414Z,101193.13
2018-06-01T14:17:05.518Z,101197.33
2018-06-01T14:19:33.647Z,101187.77
2018-06-01T14:22:01.784Z,101183.44
2018-06-01T14:24:29.919Z,101184.48
2018-06-01T14:26:58.094Z,101183.53
2018-06-01T14:29:26.215Z,101181.56
2018-06-01T14:31:54.355Z,101185.97
2018-06-01T14:34:22.528Z,101182.59
2018-06-01T14:36:50.634Z,101186.31
2018-06-01T14:39:18.813Z,101182.03
2018-06-01T14:41:50.429Z,101187.23
2018-06-01T14:44:18.566Z,101186.41
2018-06-01T14:46:46.700Z,101189.42
2018-06-01T14:49:14.851Z,101190.96
2018-06-01T14:51:43.019Z,101197.19
2018-06-01T14:54:11.132Z,101196.57
2018-06-01T14:56:39.276Z,101201.44
2018-06-01T14:59:07.400Z,101202.39
2018-06-01T15:01:35.521Z,101201.04
2018-06-01T15:04:03.678Z,101202.41
2018-06-01T15:06:31.814Z,101202.25
2018-06-01T15:08:59.954Z,101213.50
2018-06-01T15:11:28.195Z,101217.95
2018-06-01T15:13:56.383Z,101217.42
2018-06-01T15:16:24.520Z,101215.30
2018-06-01T15:18:52.633Z,101212.03
2018-06-01T15:21:20.753Z,101205.66
2018-06-01T15:23:49.120Z,101213.59
2018-06-01T15:26:17.372Z,101207.30
2018-06-01T15:28:45.512Z,101207.16
2018-06-01T15:31:13.647Z,101204.29
2018-06-01T15:33:41.800Z,101210.72
2018-06-01T15:36:09.953Z,101211.80
2018-06-01T15:38:38.983Z,101217.02
2018-06-01T15:41:07.209Z,101228.36
2018-06-01T15:43:35.290Z,101239.44
2018-06-01T15:46:04.177Z,101238.61
2018-06-01T15:48:32.329Z,101233.56
2018-06-01T15:51:00.462Z,101242.58
2018-06-01T15:53:32.340Z,101249.69
2018-06-01T15:56:00.488Z,101252.56
2018-06-01T15:58:28.632Z,101266.51
2018-06-01T16:00:56.778Z,101261.03
2018-06-01T16:03:24.933Z,101260.48
2018-06-01T16:05:53.093Z,101261.70
2018-06-01T16:08:21.272Z,101270.05
2018-06-01T16:10:49.377Z,101261.02
2018-06-01T16:13:17.487Z,101265.55
2018-06-01T16:15:45.610Z,101266.77
2018-06-01T16:18:13.805Z,101262.40
2018-06-01T16:20:43.122Z,101265.41
2018-06-01T16:23:11.274Z,101268.80
2018-06-01T16:25:39.449Z,101274.54
2018-06-01T16:28:07.577Z,101274.83
2018-06-01T16:30:35.727Z,101278.23
2018-06-01T16:33:03.881Z,101276.41
2018-06-01T16:35:32.005Z,101276.83
2018-06-01T16:38:00.164Z,101272.06
2018-06-01T16:40:28.369Z,101271.94
2018-06-01T16:42:56.537Z,101274.33
2018-06-01T16:45:24.696Z,101271.24
2018-06-01T16:47:52.912Z,101275.73
2018-06-01T16:50:20.998Z,101278.05
2018-06-01T16:52:49.147Z,101275.13
2018-06-01T16:55:17.293Z,101281.15
2018-06-01T16:57:45.426Z,101273.89
2018-06-01T17:00:13.558Z,101282.99
2018-06-01T17:02:41.735Z,101280.41
2018-06-01T17:05:09.883Z,101282.52
2018-06-01T17:07:38.015Z,101286.05
2018-06-01T17:10:06.174Z,101293.07
2018-06-01T17:12:34.319Z,101296.92
2018-06-01T17:15:02.522Z,101294.77
2018-06-01T17:17:30.651Z,101288.89
2018-06-01T17:19:58.808Z,101293.42
2018-06-01T17:22:26.942Z,101299.58
2018-06-01T17:24:55.090Z,101300.24
2018-06-01T17:27:23.249Z,101295.31
2018-06-01T17:29:55.079Z,101303.37
2018-06-01T17:32:23.217Z,101305.16
2018-06-01T17:34:51.362Z,101304.77
2018-06-01T17:37:19.517Z,101307.47
2018-06-01T17:39:47.638Z,101310.29
2018-06-01T17:42:15.766Z,101316.19
2018-06-01T17:44:43.903Z,101318.27
2018-06-01T17:47:12.031Z,101317.41
2018-06-01T17:49:40.188Z,101319.84
2018-06-01T17:52:08.342Z,101321.59
2018-06-01T17:54:36.477Z,101319.78
2018-06-01T17:57:04.614Z,101312.19
2018-06-01T17:59:32.807Z,101317.53
2018-06-01T18:02:00.954Z,101310.31
2018-06-01T18:04:29.079Z,101313.77
2018-06-01T18:06:57.248Z,101313.72
2018-06-01T18:09:25.374Z,101323.88
2018-06-01T18:11:53.504Z,101315.26
2018-06-01T18:14:21.660Z,101318.06
2018-06-01T18:16:49.806Z,101321.98
2018-06-01T18:19:18.023Z,101321.72
2018-06-01T18:21:46.172Z,101320.80
2018-06-01T18:24:14.321Z,101321.41
2018-06-01T18:26:42.455Z,101318.20
2018-06-01T18:29:10.590Z,101311.62
2018-06-01T18:31:38.750Z,101315.37
2018-06-01T18:34:07.157Z,101311.99
2018-06-01T18:36:35.298Z,101308.99
2018-06-01T18:39:03.453Z,101310.09
2018-06-01T18:41:31.598Z,101303.97
2018-06-01T18:43:59.814Z,101307.96
2018-06-01T18:46:27.894Z,101309.89
2018-06-01T18:48:56.051Z,101314.22
2018-06-01T18:51:24.190Z,101316.33
2018-06-01T18:53:52.319Z,101322.29
2018-06-01T18:56:20.467Z,101324.87
2018-06-01T18:58:48.610Z,101327.41
2018-06-01T19:01:16.782Z,101334.55
2018-06-01T19:03:44.942Z,101337.95
2018-06-01T19:06:13.074Z,101337.30
2018-06-01T19:08:41.222Z,101340.67
2018-06-01T19:11:09.352Z,101345.59
2018-06-01T19:13:37.501Z,101347.29
2018-06-01T19:16:05.631Z,101345.08
2018-06-01T19:18:33.766Z,101350.38
2018-06-01T19:21:02.998Z,101357.70
2018-06-01T19:23:31.116Z,101360.09
2018-06-01T19:25:59.267Z,101365.17
2018-06-01T19:28:27.384Z,101369.89
2018-06-01T19:30:55.525Z,101369.08
2018-06-01T19:33:23.894Z,101373.93
2018-06-01T19:35:52.026Z,101376.81
2018-06-01T19:38:20.171Z,101370.22
2018-06-01T19:40:48.291Z,101381.98
2018-06-01T19:43:16.416Z,101388.25
2018-06-01T19:45:44.549Z,101391.92
2018-06-01T19:48:12.701Z,101391.66
2018-06-01T19:50:40.838Z,101395.92
2018-06-01T19:53:08.953Z,101399.17
2018-06-01T19:55:37.106Z,101404.84
2018-06-01T19:58:05.251Z,101404.75
2018-06-01T20:00:33.398Z,101406.59
2018-06-01T20:03:01.543Z,101411.69
2018-06-01T20:05:29.678Z,101405.49
2018-06-01T20:07:57.823Z,101412.17
2018-06-01T20:10:25.951Z,101408.73
2018-06-01T20:12:54.100Z,101413.30
2018-06-01T20:15:22.266Z,101416.16
2018-06-01T20:17:50.402Z,101415.23
2018-06-01T20:20:18.520Z,101420.16
2018-06-01T20:22:46.688Z,101419.81
2018-06-01T20:25:14.818Z,101420.16
2018-06-01T20:27:42.989Z,101425.65
2018-06-01T20:30:11.118Z,101420.98
2018-06-01T20:32:39.272Z,101426.45
2018-06-01T20:35:07.540Z,101420.04
2018-06-01T20:37:35.669Z,101423.79
2018-06-01T20:40:03.827Z,101418.05
2018-06-01T20:42:31.940Z,101416.64
2018-06-01T20:45:00.064Z,101413.95
2018-06-01T20:47:28.233Z,101414.56
2018-06-01T20:49:56.521Z,101412.89
2018-06-01T20:52:24.689Z,101416.66
2018-06-01T20:54:52.828Z,101419.26
2018-06-01T20:57:20.981Z,101425.28
2018-06-01T20:59:49.141Z,101422.97
2018-06-01T21:02:17.273Z,101416.39
2018-06-01T21:04:45.403Z,101419.33
2018-06-01T21:07:13.533Z,101412.16
2018-06-01T21:09:41.670Z,101415.02
2018-06-01T21:12:09.843Z,101416.20
2018-06-01T21:14:41.471Z,101416.00
2018-06-01T21:17:09.607Z,101418.91
2018-06-01T21:19:37.771Z,101420.06
2018-06-01T21:22:05.903Z,101411.97
2018-06-01T21:24:34.031Z,101422.23
2018-06-01T21:27:02.171Z,101421.89
2018-06-01T21:29:30.345Z,101425.55
2018-06-01T21:31:58.499Z,101428.06
2018-06-01T21:34:26.630Z,101419.13
2018-06-01T21:36:54.927Z,101424.69
2018-06-01T21:39:23.087Z,101432.34
2018-06-01T21:41:51.228Z,101436.22
2018-06-01T21:44:19.367Z,101433.69
2018-06-01T21:46:47.488Z,101442.61
2018-06-01T21:49:15.678Z,101437.15
2018-06-01T21:51:43.815Z,101440.45
2018-06-01T21:54:11.966Z,101440.23
2018-06-01T21:56:40.098Z,101438.74
2018-06-01T21:59:08.249Z,101439.93
2018-06-01T22:01:36.381Z,101442.81
2018-06-01T22:04:04.506Z,101444.89
2018-06-01T22:06:32.651Z,101442.72
2018-06-01T22:09:00.832Z,101450.97
2018-06-01T22:11:29.082Z,101449.98
2018-06-01T22:13:57.243Z,101441.09
2018-06-01T22:16:25.378Z,101443.59
2018-06-01T22:18:53.523Z,101448.62
2018-06-01T22:21:21.694Z,101440.91
2018-06-01T22:23:49.840Z,101449.85
2018-06-01T22:26:17.978Z,101449.34
2018-06-01T22:28:46.472Z,101456.00
2018-06-01T22:31:14.683Z,101458.32
2018-06-01T22:33:42.929Z,101454.05
2018-06-01T22:36:11.074Z,101463.03
2018-06-01T22:38:39.247Z,101459.32
2018-06-01T22:41:07.397Z,101452.73
2018-06-01T22:43:35.532Z,101455.42
2018-06-01T22:46:03.782Z,101451.88
2018-06-01T22:48:31.924Z,101448.73
2018-06-01T22:51:00.058Z,101453.58
2018-06-01T22:53:28.201Z,101455.17
2018-06-01T22:55:56.534Z,101454.84
2018-06-01T22:58:24.667Z,101450.59
2018-06-01T23:00:52.821Z,101442.76
2018-06-01T23:03:20.962Z,101440.21
2018-06-01T23:05:49.186Z,101438.73
2018-06-01T23:08:17.304Z,101448.62
2018-06-01T23:10:45.427Z,101445.62
2018-06-01T23:13:13.571Z,101443.48
2018-06-01T23:15:41.696Z,101448.52
2018-06-01T23:18:09.838Z,101447.05
2018-06-01T23:20:38.001Z,101443.86
2018-06-01T23:23:06.126Z,101437.64
2018-06-01T23:25:34.357Z,101439.51
2018-06-01T23:28:02.483Z,101439.45
2018-06-01T23:30:30.619Z,101441.75
2018-06-01T23:32:58.865Z,101440.36
2018-06-01T23:35:26.978Z,101443.97
2018-06-01T23:37:55.128Z,101435.66
2018-06-01T23:40:23.282Z,101446.45
2018-06-01T23:42:51.413Z,101443.16
2018-06-01T23:45:19.570Z,101445.83
2018-06-01T23:47:47.689Z,101438.67
2018-06-01T23:50:15.807Z,101444.46
2018-06-01T23:52:43.981Z,101441.84
2018-06-01T23:55:12.131Z,101441.08
2018-06-01T23:57:40.290Z,101441.50
